Time;durP1;ratioP1;P1;durP2;ratioP2;P2;SDS_P1;SDS_P2;PMS_P1;PMS_P2;Temp;Humidity;BMP_temperature;BMP_pressure;BME280_temperature;BME280_humidity;BME280_pressure;Samples;Min_cycle;Max_cycle;Signal;HPM_P1;HPM_P2
2022/06/29 00:00:39;;;;;;;8.70;7.90;;;20.10;99.90;;;;;;5133306;27;20941;-70
2022/06/29 00:03:06;;;;;;;9.60;8.80;;;20.10;99.90;;;;;;5133536;27;20992;-70
2022/06/29 00:05:33;;;;;;;9.17;8.37;;;20.20;99.90;;;;;;5133388;27;20444;-71
2022/06/29 00:08:00;;;;;;;9.53;8.63;;;20.20;99.90;;;;;;5133394;27;20524;-70
2022/06/29 00:10:27;;;;;;;8.37;7.77;;;20.20;99.90;;;;;;5133734;27;20542;-70
2022/06/29 00:12:55;;;;;;;9.60;8.80;;;20.20;99.90;;;;;;5133419;27;20541;-69
2022/06/29 00:15:23;;;;;;;9.27;8.43;;;20.10;99.90;;;;;;5133876;27;20535;-69
2022/06/29 00:17:50;;;;;;;9.87;9.10;;;20.10;99.90;;;;;;5133099;27;20514;-74
2022/06/29 00:20:17;;;;;;;10.67;9.67;;;20.20;99.90;;;;;;5132842;27;20444;-73
2022/06/29 00:22:45;;;;;;;9.70;8.90;;;20.20;99.90;;;;;;5132807;27;20866;-72
2022/06/29 00:25:13;;;;;;;9.53;8.83;;;20.20;99.90;;;;;;5133238;27;20538;-72
2022/06/29 00:27:40;;;;;;;9.83;9.00;;;20.20;99.90;;;;;;5132956;27;20481;-72
2022/06/29 00:30:10;;;;;;;9.83;9.03;;;20.10;99.90;;;;;;5134356;27;20534;-71
2022/06/29 00:32:37;;;;;;;10.03;9.33;;;20.10;99.90;;;;;;5134242;27;20456;-72
2022/06/29 00:35:06;;;;;;;9.93;9.13;;;20.00;99.90;;;;;;5134609;27;20440;-71
2022/06/29 00:37:32;;;;;;;10.13;9.33;;;20.00;99.90;;;;;;5134373;27;20888;-71
2022/06/29 00:40:00;;;;;;;10.27;9.37;;;20.00;99.90;;;;;;5134279;27;20941;-70
2022/06/29 00:42:27;;;;;;;10.57;9.50;;;19.90;99.90;;;;;;5134165;27;20457;-71
2022/06/29 00:44:54;;;;;;;9.50;8.80;;;19.90;99.90;;;;;;5134674;27;20500;-70
2022/06/29 00:47:22;;;;;;;10.73;9.93;;;19.90;99.90;;;;;;5138332;27;20900;-71
2022/06/29 00:49:49;;;;;;;10.87;10.00;;;19.90;99.90;;;;;;5137975;27;20535;-71
2022/06/29 00:52:20;;;;;;;10.83;9.97;;;19.80;99.90;;;;;;5137979;27;20456;-71
2022/06/29 00:54:51;;;;;;;10.53;9.63;;;19.80;99.90;;;;;;5138199;27;20500;-70
2022/06/29 00:57:19;;;;;;;10.33;9.33;;;19.80;99.90;;;;;;5138133;27;20433;-71
2022/06/29 00:59:48;;;;;;;10.53;9.60;;;19.80;99.90;;;;;;5137899;27;20990;-70
2022/06/29 01:02:17;;;;;;;11.20;9.90;;;19.90;99.90;;;;;;5137769;27;20526;-71
2022/06/29 01:04:47;;;;;;;11.03;10.13;;;19.90;99.90;;;;;;5137900;27;20460;-71
2022/06/29 01:07:15;;;;;;;10.30;9.40;;;19.80;99.90;;;;;;5137821;27;20563;-70
2022/06/29 01:09:42;;;;;;;9.80;9.10;;;19.80;99.90;;;;;;5137726;27;20953;-71
2022/06/29 01:12:10;;;;;;;10.30;9.50;;;19.70;99.90;;;;;;5137380;27;20437;-71
2022/06/29 01:14:37;;;;;;;10.63;9.73;;;19.70;99.90;;;;;;5137373;27;20996;-71
2022/06/29 01:17:04;;;;;;;10.90;9.80;;;19.70;99.90;;;;;;5137456;27;20519;-71
2022/06/29 01:19:31;;;;;;;10.60;9.80;;;19.70;99.90;;;;;;5137399;27;20523;-71
2022/06/29 01:22:08;;;;;;;10.57;9.67;;;19.60;99.90;;;;;;5137578;27;20530;-71
2022/06/29 01:24:36;;;;;;;9.90;9.00;;;19.60;99.90;;;;;;5137542;27;20463;-71
2022/06/29 01:27:03;;;;;;;10.10;9.20;;;19.70;99.90;;;;;;5137334;27;20567;-71
2022/06/29 01:29:31;;;;;;;10.50;9.60;;;19.70;99.90;;;;;;5137251;27;20971;-71
2022/06/29 01:31:58;;;;;;;9.73;8.93;;;19.80;99.90;;;;;;5137378;27;20539;-70
2022/06/29 01:34:26;;;;;;;9.60;8.80;;;19.70;99.90;;;;;;5137148;27;20554;-71
2022/06/29 01:36:53;;;;;;;10.20;9.40;;;19.70;99.90;;;;;;5137310;27;20528;-71
2022/06/29 01:39:21;;;;;;;10.17;9.30;;;19.70;99.90;;;;;;5137214;27;20535;-71
2022/06/29 01:41:48;;;;;;;9.97;9.17;;;19.60;99.90;;;;;;5137133;27;20526;-71
2022/06/29 01:44:15;;;;;;;11.03;9.93;;;19.70;99.90;;;;;;5137103;27;20550;-71
2022/06/29 01:46:43;;;;;;;10.37;9.57;;;19.70;99.90;;;;;;5137039;27;20476;-71
2022/06/29 01:49:10;;;;;;;11.07;10.17;;;19.70;99.90;;;;;;5136972;27;20527;-71
2022/06/29 01:51:37;;;;;;;10.67;9.70;;;19.70;99.90;;;;;;5136928;27;20929;-71
2022/06/29 01:54:04;;;;;;;11.83;10.83;;;19.70;99.90;;;;;;5136345;27;21088;-71
2022/06/29 01:56:32;;;;;;;10.57;9.67;;;19.60;99.90;;;;;;5136064;27;20529;-71
2022/06/29 01:58:59;;;;;;;10.73;9.73;;;19.60;99.90;;;;;;5136862;27;20447;-71
2022/06/29 02:01:26;;;;;;;10.83;9.93;;;19.60;99.90;;;;;;5136621;27;20535;-71
2022/06/29 02:03:53;;;;;;;10.13;9.20;;;19.60;99.90;;;;;;5136346;27;20554;-71
2022/06/29 02:06:20;;;;;;;10.70;9.80;;;19.60;99.90;;;;;;5136745;27;20587;-71
2022/06/29 02:08:47;;;;;;;10.70;9.80;;;19.60;99.90;;;;;;5136621;27;20532;-71
2022/06/29 02:11:14;;;;;;;11.80;10.80;;;19.60;99.90;;;;;;5136656;27;20440;-70
2022/06/29 02:13:43;;;;;;;11.17;10.17;;;19.50;99.90;;;;;;5136387;27;20557;-71
2022/06/29 02:16:10;;;;;;;10.73;9.90;;;19.40;99.90;;;;;;5136389;27;20528;-70
2022/06/29 02:18:36;;;;;;;10.43;9.57;;;19.30;99.90;;;;;;5136493;27;20446;-71
2022/06/29 02:21:03;;;;;;;11.33;10.43;;;19.20;99.90;;;;;;5136390;27;20296;-71
2022/06/29 02:23:30;;;;;;;11.23;10.17;;;19.30;99.90;;;;;;5136014;27;20921;-71
2022/06/29 02:25:57;;;;;;;11.80;10.80;;;19.40;99.90;;;;;;5136303;27;20436;-70
2022/06/29 02:28:24;;;;;;;12.00;11.00;;;19.40;99.90;;;;;;5136210;27;20484;-71
2022/06/29 02:36:21;;;;;;;11.07;10.15;;;19.40;99.90;;;;;;5136256;27;20496;-71
2022/06/29 02:38:48;;;;;;;12.13;11.13;;;19.40;99.90;;;;;;5136080;27;20297;-71
2022/06/29 02:41:15;;;;;;;12.33;11.23;;;19.30;99.90;;;;;;5136047;27;20207;-71
2022/06/29 02:43:41;;;;;;;11.73;10.73;;;19.30;99.90;;;;;;5135615;27;20551;-71
2022/06/29 02:46:10;;;;;;;10.83;9.93;;;19.30;99.90;;;;;;5135880;27;20532;-71
2022/06/29 02:48:36;;;;;;;12.10;11.00;;;19.20;99.90;;;;;;5135614;27;20991;-71
2022/06/29 02:51:03;;;;;;;11.10;10.10;;;19.20;99.90;;;;;;5135814;27;20538;-70
2022/06/29 02:53:30;;;;;;;11.45;10.25;;;19.20;99.90;;;;;;5135353;27;20483;-71
2022/06/29 02:55:57;;;;;;;11.50;10.40;;;19.20;99.90;;;;;;5135822;27;20251;-71
2022/06/29 02:58:24;;;;;;;12.07;11.07;;;19.10;99.90;;;;;;5135579;27;20523;-71
2022/06/29 03:00:51;;;;;;;12.43;11.18;;;19.10;99.90;;;;;;5135567;27;20525;-71
2022/06/29 03:03:19;;;;;;;11.55;10.65;;;19.20;99.90;;;;;;5135061;27;20309;-70
2022/06/29 03:05:46;;;;;;;12.50;11.40;;;19.10;99.90;;;;;;5135557;27;20292;-70
2022/06/29 03:08:13;;;;;;;11.67;10.67;;;19.10;99.90;;;;;;5134847;27;20589;-70
2022/06/29 03:10:40;;;;;;;12.20;11.00;;;19.10;99.90;;;;;;5135068;27;20530;-71
2022/06/29 03:13:07;;;;;;;11.50;10.30;;;19.10;99.90;;;;;;5134970;27;20550;-70
2022/06/29 03:15:34;;;;;;;11.20;10.20;;;19.10;99.90;;;;;;5135346;27;20793;-71
2022/06/29 03:18:00;;;;;;;11.50;10.50;;;19.10;99.90;;;;;;5135096;27;20992;-70
2022/06/29 03:20:29;;;;;;;11.10;10.00;;;19.10;99.90;;;;;;5135330;27;20530;-71
2022/06/29 03:22:55;;;;;;;11.47;10.57;;;19.10;99.90;;;;;;5134939;27;20530;-71
2022/06/29 03:25:22;;;;;;;11.20;10.30;;;19.10;99.90;;;;;;5135296;27;20470;-71
2022/06/29 03:27:49;;;;;;;12.07;11.07;;;19.10;99.90;;;;;;5135025;27;20668;-71
2022/06/29 03:30:16;;;;;;;10.77;9.97;;;19.00;99.90;;;;;;5134898;27;20594;-71
2022/06/29 03:32:43;;;;;;;11.50;10.50;;;19.10;99.90;;;;;;5134732;27;20864;-70
2022/06/29 03:35:10;;;;;;;11.37;10.40;;;19.10;99.90;;;;;;5134819;27;20535;-71
2022/06/29 03:37:38;;;;;;;11.33;10.40;;;19.10;99.90;;;;;;5134994;27;20861;-71
2022/06/29 03:40:06;;;;;;;11.73;10.73;;;19.10;99.90;;;;;;5134970;27;20521;-71
2022/06/29 03:42:33;;;;;;;11.40;10.30;;;19.10;99.90;;;;;;5134922;27;20252;-70
2022/06/29 03:45:00;;;;;;;12.40;11.30;;;19.10;99.90;;;;;;5134906;27;20304;-71
2022/06/29 03:47:27;;;;;;;12.47;11.37;;;19.00;99.90;;;;;;5134793;27;20627;-71
2022/06/29 03:49:54;;;;;;;11.17;10.27;;;19.00;99.90;;;;;;5134847;27;20890;-71
2022/06/29 03:52:21;;;;;;;11.65;10.75;;;19.00;99.90;;;;;;5134469;27;20817;-70
2022/06/29 03:54:49;;;;;;;11.70;10.70;;;19.00;99.90;;;;;;5134773;27;20617;-70
2022/06/29 03:57:16;;;;;;;11.30;10.40;;;18.90;99.90;;;;;;5134705;27;20630;-71
2022/06/29 03:59:43;;;;;;;12.68;11.48;;;18.90;99.90;;;;;;5134460;27;20445;-70
2022/06/29 04:04:39;;;;;;;12.65;11.65;;;18.90;99.90;;;;;;5781081;22;20484;-71
2022/06/29 04:07:06;;;;;;;12.02;11.00;;;18.80;99.90;;;;;;5093635;28;20320;-70
2022/06/29 04:09:33;;;;;;;14.13;12.77;;;18.70;99.90;;;;;;5100293;28;20230;-70
2022/06/29 04:12:01;;;;;;;13.25;12.20;;;18.60;99.90;;;;;;5114203;28;20555;-70
2022/06/29 04:14:29;;;;;;;11.98;10.98;;;18.50;99.90;;;;;;5113663;28;20734;-70
2022/06/29 04:16:57;;;;;;;13.20;11.90;;;18.40;99.90;;;;;;5113960;28;20288;-70
2022/06/29 04:19:25;;;;;;;12.50;11.30;;;18.30;99.90;;;;;;5114163;28;20315;-70
2022/06/29 04:21:52;;;;;;;12.20;11.10;;;18.40;99.90;;;;;;5118215;28;20300;-70
2022/06/29 04:24:19;;;;;;;11.75;10.75;;;18.50;99.90;;;;;;5117736;28;20731;-70
2022/06/29 04:26:46;;;;;;;11.35;10.35;;;18.60;99.90;;;;;;5117976;28;20293;-70
2022/06/29 04:29:14;;;;;;;12.27;11.18;;;18.70;99.90;;;;;;5118126;28;20312;-71
2022/06/29 04:31:42;;;;;;;11.55;10.55;;;18.70;99.90;;;;;;5118299;28;20297;-70
2022/06/29 04:34:09;;;;;;;12.52;11.43;;;18.80;99.90;;;;;;5117287;28;20297;-71
2022/06/29 04:36:35;;;;;;;15.05;11.55;;;18.80;99.90;;;;;;5117995;28;20294;-70
2022/06/29 04:39:03;;;;;;;13.00;11.82;;;18.80;99.90;;;;;;5117889;28;20288;-70
2022/06/29 04:41:30;;;;;;;11.77;10.77;;;18.80;99.90;;;;;;5118423;27;20292;-71
2022/06/29 04:43:57;;;;;;;11.90;11.00;;;18.90;99.90;;;;;;5117416;28;20202;-70
2022/06/29 04:46:25;;;;;;;12.70;11.60;;;19.00;99.90;;;;;;5117809;28;20198;-70
2022/06/29 04:48:55;;;;;;;13.02;11.82;;;19.00;99.90;;;;;;5117538;28;20292;-70
2022/06/29 04:51:22;;;;;;;12.02;11.02;;;19.00;99.90;;;;;;5117716;28;20203;-70
2022/06/29 04:53:53;;;;;;;12.93;11.73;;;19.00;99.90;;;;;;5117170;28;20204;-70
2022/06/29 04:56:22;;;;;;;13.80;12.60;;;19.10;99.90;;;;;;5117626;28;20440;-70
2022/06/29 04:58:50;;;;;;;12.70;11.60;;;19.10;99.90;;;;;;5117490;28;20459;-70
2022/06/29 05:01:17;;;;;;;13.43;12.20;;;19.10;99.90;;;;;;5117228;28;20665;-70
2022/06/29 05:03:46;;;;;;;12.37;11.27;;;19.20;99.90;;;;;;5116930;28;20479;-71
2022/06/29 05:06:13;;;;;;;13.17;11.97;;;19.20;99.90;;;;;;5117317;28;20532;-70
2022/06/29 05:08:40;;;;;;;13.80;12.27;;;19.30;99.90;;;;;;5117142;28;20567;-71
2022/06/29 05:11:07;;;;;;;13.17;11.77;;;19.30;99.90;;;;;;5117322;28;20556;-70
2022/06/29 05:13:33;;;;;;;12.77;11.67;;;19.20;99.90;;;;;;5117269;28;20540;-70
2022/06/29 05:16:00;;;;;;;13.50;12.20;;;19.30;99.90;;;;;;5117034;28;20528;-70
2022/06/29 05:18:28;;;;;;;13.70;12.60;;;19.20;99.90;;;;;;5117153;27;20523;-70
2022/06/29 05:20:56;;;;;;;13.47;12.30;;;19.20;99.90;;;;;;5116791;28;20472;-70
2022/06/29 05:23:23;;;;;;;14.40;13.20;;;19.10;99.90;;;;;;5116884;28;20792;-70
2022/06/29 05:25:49;;;;;;;13.20;12.10;;;18.90;99.90;;;;;;5116567;28;20538;-70
2022/06/29 05:28:16;;;;;;;13.32;12.23;;;18.90;99.90;;;;;;5116872;27;20314;-70
2022/06/29 05:30:43;;;;;;;14.17;12.93;;;19.00;99.90;;;;;;5116960;28;20309;-70
2022/06/29 05:33:10;;;;;;;14.50;13.10;;;18.90;99.90;;;;;;5115857;28;20528;-70
2022/06/29 05:35:37;;;;;;;14.40;13.10;;;18.80;99.90;;;;;;5116328;28;20527;-71
2022/06/29 05:38:06;;;;;;;13.32;12.13;;;18.80;99.90;;;;;;5116824;28;20611;-70
2022/06/29 05:40:32;;;;;;;13.60;12.50;;;18.70;99.90;;;;;;5116768;28;20222;-70
2022/06/29 05:42:59;;;;;;;13.27;12.18;;;18.60;99.90;;;;;;5116698;28;20230;-70
2022/06/29 05:45:26;;;;;;;13.43;12.18;;;18.50;99.90;;;;;;5116428;28;20293;-70
2022/06/29 05:47:54;;;;;;;14.90;13.45;;;18.50;99.90;;;;;;5116480;28;20310;-71
2022/06/29 05:50:22;;;;;;;13.60;12.30;;;18.50;99.90;;;;;;5116238;28;20229;-70
2022/06/29 05:52:49;;;;;;;14.68;13.38;;;18.60;99.90;;;;;;5116547;27;20293;-70
2022/06/29 05:55:17;;;;;;;13.40;12.30;;;18.60;99.90;;;;;;5116037;28;20295;-70
2022/06/29 05:57:45;;;;;;;14.18;12.98;;;18.60;99.90;;;;;;5116474;28;20227;-70
2022/06/29 06:00:13;;;;;;;13.70;12.60;;;18.60;99.90;;;;;;5116230;28;20228;-70
2022/06/29 06:02:40;;;;;;;13.82;12.73;;;18.50;99.90;;;;;;5116343;27;20558;-70
2022/06/29 06:05:08;;;;;;;14.57;13.18;;;18.50;99.90;;;;;;5115852;28;20292;-70
2022/06/29 06:07:35;;;;;;;14.82;13.48;;;18.50;99.90;;;;;;5116038;28;20581;-70
2022/06/29 06:10:02;;;;;;;15.15;13.85;;;18.50;99.90;;;;;;5115984;28;20309;-70
2022/06/29 06:12:32;;;;;;;13.60;12.40;;;18.60;99.90;;;;;;5116135;27;20240;-70
2022/06/29 06:15:00;;;;;;;14.10;12.80;;;18.60;99.90;;;;;;5115447;28;20201;-71
2022/06/29 06:17:27;;;;;;;14.65;13.27;;;18.50;99.90;;;;;;5115962;28;20198;-70
2022/06/29 06:19:54;;;;;;;14.20;12.88;;;18.50;99.90;;;;;;5115971;28;20298;-70
2022/06/29 06:22:21;;;;;;;14.27;13.05;;;18.60;99.90;;;;;;5115794;28;20212;-69
2022/06/29 06:24:48;;;;;;;13.83;12.57;;;18.70;99.90;;;;;;5115256;28;20209;-70
2022/06/29 06:27:15;;;;;;;12.93;11.80;;;18.80;99.90;;;;;;5115857;28;20532;-69
2022/06/29 06:29:45;;;;;;;13.50;12.30;;;18.90;99.90;;;;;;5115618;28;20220;-70
2022/06/29 06:32:12;;;;;;;13.67;12.37;;;19.00;99.90;;;;;;5115558;28;20300;-70
2022/06/29 06:34:39;;;;;;;14.87;13.60;;;19.00;99.90;;;;;;5115428;28;20436;-70
2022/06/29 06:37:06;;;;;;;14.23;13.02;;;19.00;99.90;;;;;;5115635;28;20535;-70
2022/06/29 06:39:33;;;;;;;13.57;12.40;;;19.00;99.90;;;;;;5115346;28;20305;-70
2022/06/29 06:41:59;;;;;;;14.32;13.05;;;19.00;99.90;;;;;;5115303;27;20771;-70
2022/06/29 06:44:26;;;;;;;13.90;12.70;;;18.90;99.90;;;;;;5114979;28;20237;-70
2022/06/29 06:46:54;;;;;;;13.90;12.70;;;19.00;99.90;;;;;;5115445;28;20533;-70
2022/06/29 06:49:23;;;;;;;13.53;12.30;;;19.20;99.90;;;;;;5115209;28;20488;-70
2022/06/29 06:51:51;;;;;;;14.60;13.23;;;19.40;99.90;;;;;;5115341;28;20460;-70
2022/06/29 06:54:18;;;;;;;13.57;12.37;;;19.50;99.90;;;;;;5114695;28;20955;-70
2022/06/29 06:56:44;;;;;;;14.70;13.17;;;19.60;99.90;;;;;;5115203;28;20539;-70
2022/06/29 06:59:12;;;;;;;13.60;12.40;;;19.60;99.90;;;;;;5114876;28;20549;-70
2022/06/29 07:01:38;;;;;;;13.57;12.53;;;19.70;99.90;;;;;;5115122;28;20523;-70
2022/06/29 07:04:07;;;;;;;13.30;12.30;;;20.00;99.90;;;;;;5114674;28;20881;-70
2022/06/29 07:06:34;;;;;;;12.40;11.30;;;20.40;99.90;;;;;;5114912;28;20611;-70
2022/06/29 07:09:00;;;;;;;13.00;11.90;;;20.60;99.90;;;;;;5114899;28;20566;-69
2022/06/29 07:11:27;;;;;;;12.43;11.43;;;20.80;99.90;;;;;;5114964;28;20537;-69
2022/06/29 07:13:54;;;;;;;12.03;11.00;;;21.00;99.90;;;;;;5105245;28;20460;-71
2022/06/29 07:16:21;;;;;;;12.40;11.40;;;21.00;99.90;;;;;;5095350;28;20535;-71
2022/06/29 07:18:49;;;;;;;12.30;11.20;;;21.10;99.90;;;;;;5093241;28;20531;-71
2022/06/29 07:21:17;;;;;;;12.90;11.80;;;21.20;99.90;;;;;;5093163;28;20444;-70
2022/06/29 07:23:44;;;;;;;13.10;11.87;;;21.40;99.90;;;;;;5092877;28;20509;-71
2022/06/29 07:26:11;;;;;;;12.20;11.10;;;21.60;99.90;;;;;;5092775;28;20536;-71
2022/06/29 07:28:39;;;;;;;12.90;11.70;;;21.70;99.90;;;;;;5092729;28;20574;-70
2022/06/29 07:31:06;;;;;;;13.63;12.47;;;21.70;99.90;;;;;;5093130;28;20566;-71
2022/06/29 07:33:33;;;;;;;13.47;12.23;;;21.80;99.90;;;;;;5093007;28;20463;-71
2022/06/29 07:36:00;;;;;;;13.53;12.33;;;21.80;99.90;;;;;;5092538;28;20531;-70
2022/06/29 07:38:28;;;;;;;12.23;11.13;;;21.80;99.90;;;;;;5092452;28;20535;-71
2022/06/29 07:40:58;;;;;;;11.47;10.67;;;21.90;99.90;;;;;;5093056;28;20558;-71
2022/06/29 07:43:25;;;;;;;12.23;11.30;;;21.80;99.90;;;;;;5092877;28;20452;-71
2022/06/29 07:45:51;;;;;;;13.00;11.63;;;21.90;99.90;;;;;;5092540;28;20869;-71
2022/06/29 07:48:19;;;;;;;12.50;11.20;;;21.90;99.90;;;;;;5092577;28;20563;-72
2022/06/29 07:50:46;;;;;;;12.17;11.03;;;22.10;99.90;;;;;;5092705;28;20472;-72
2022/06/29 07:53:13;;;;;;;11.30;10.40;;;22.30;99.90;;;;;;5092796;28;20487;-71
2022/06/29 07:55:44;;;;;;;11.67;10.50;;;22.80;99.90;;;;;;5091971;28;20464;-71
2022/06/29 07:58:11;;;;;;;11.00;10.20;;;23.40;99.90;;;;;;5092560;28;20450;-71
2022/06/29 08:00:38;;;;;;;11.77;10.87;;;23.80;99.90;;;;;;5092381;28;20562;-72
2022/06/29 08:03:05;;;;;;;10.47;9.60;;;24.10;99.90;;;;;;5092523;28;20451;-71
2022/06/29 08:05:32;;;;;;;11.30;10.30;;;24.40;99.90;;;;;;5092173;28;20992;-71
2022/06/29 08:07:59;;;;;;;11.33;10.53;;;24.90;99.90;;;;;;5092084;28;20458;-71
2022/06/29 08:10:26;;;;;;;11.00;10.10;;;25.30;99.90;;;;;;5092368;28;20546;-71
2022/06/29 08:12:54;;;;;;;10.40;9.70;;;25.40;99.90;;;;;;5092721;28;20805;-70
2022/06/29 08:15:21;;;;;;;12.23;11.23;;;25.30;99.90;;;;;;5092283;28;20558;-71
2022/06/29 08:17:48;;;;;;;11.67;10.67;;;25.00;99.90;;;;;;5092072;28;20448;-71
2022/06/29 08:20:15;;;;;;;10.50;9.60;;;24.80;99.90;;;;;;5092950;28;20878;-69
2022/06/29 08:22:42;;;;;;;10.23;9.53;;;24.70;99.90;;;;;;5093638;28;20530;-69
2022/06/29 08:25:10;;;;;;;10.07;9.20;;;24.50;99.90;;;;;;5093479;28;20864;-69
2022/06/29 08:27:37;;;;;;;10.20;9.30;;;24.30;99.90;;;;;;5093673;28;20917;-69
2022/06/29 08:30:07;;;;;;;10.47;9.67;;;24.60;99.90;;;;;;5093131;28;21055;-69
2022/06/29 08:32:34;;;;;;;11.00;9.90;;;24.80;99.90;;;;;;5093519;28;20534;-69
2022/06/29 08:35:01;;;;;;;11.07;10.07;;;24.90;99.90;;;;;;5093384;28;20522;-69
2022/06/29 08:37:29;;;;;;;10.53;9.53;;;25.00;99.90;;;;;;5093322;28;20881;-69
2022/06/29 08:39:56;;;;;;;11.47;10.50;;;25.10;99.90;;;;;;5093258;28;20543;-69
2022/06/29 08:42:24;;;;;;;9.47;8.77;;;25.20;99.90;;;;;;5093618;28;20534;-69
2022/06/29 08:44:52;;;;;;;10.10;9.30;;;25.40;99.90;;;;;;5093227;28;20452;-69
2022/06/29 08:47:20;;;;;;;8.73;8.13;;;25.60;99.90;;;;;;5093318;28;20523;-69
2022/06/29 08:49:47;;;;;;;9.77;9.07;;;25.70;99.90;;;;;;5093556;28;20515;-69
2022/06/29 08:52:15;;;;;;;10.33;9.53;;;25.90;99.90;;;;;;5093354;28;20514;-69
2022/06/29 08:54:46;;;;;;;10.17;9.33;;;25.80;99.90;;;;;;5093009;28;20530;-69
2022/06/29 08:57:13;;;;;;;9.97;9.20;;;25.70;99.90;;;;;;5093299;28;20933;-69
2022/06/29 08:59:40;;;;;;;10.00;9.20;;;25.90;99.90;;;;;;5093172;28;20464;-70
2022/06/29 09:02:07;;;;;;;8.93;8.30;;;25.90;99.90;;;;;;5093295;28;20440;-69
2022/06/29 09:04:36;;;;;;;10.23;9.57;;;26.00;99.90;;;;;;5093095;28;20532;-69
2022/06/29 09:07:03;;;;;;;10.30;9.53;;;26.40;99.40;;;;;;5093768;28;21036;-69
2022/06/29 09:09:29;;;;;;;9.97;9.27;;;26.90;98.30;;;;;;5096732;28;20905;-69
2022/06/29 09:11:56;;;;;;;9.30;8.60;;;27.30;97.60;;;;;;5096968;28;20813;-70
2022/06/29 09:14:25;;;;;;;9.63;8.93;;;29.00;96.60;;;;;;5096572;28;20527;-70
2022/06/29 09:17:00;;;;;;;8.97;8.37;;;29.70;92.20;;;;;;5096800;28;20445;-70
2022/06/29 09:19:29;;;;;;;9.97;9.27;;;30.70;92.00;;;;;;5096749;28;20808;-70
2022/06/29 09:21:59;;;;;;;9.93;9.10;;;31.20;85.70;;;;;;5096482;28;20443;-70
2022/06/29 09:24:31;;;;;;;8.90;8.10;;;32.00;88.00;;;;;;5096371;28;20980;-70
2022/06/29 09:27:00;;;;;;;9.40;8.70;;;34.20;79.50;;;;;;5096366;28;20440;-70
2022/06/29 09:29:29;;;;;;;9.97;9.27;;;35.80;68.10;;;;;;5096362;28;20566;-70
2022/06/29 09:32:09;;;;;;;8.83;8.30;;;36.40;60.30;;;;;;5096615;28;20797;-70
2022/06/29 09:34:37;;;;;;;8.80;8.20;;;35.20;62.50;;;;;;5096132;28;20539;-70
2022/06/29 09:37:07;;;;;;;9.07;8.47;;;34.30;67.70;;;;;;5096650;28;20479;-70
2022/06/29 09:39:35;;;;;;;8.40;7.90;;;34.60;65.40;;;;;;5096084;28;20467;-70
2022/06/29 09:42:02;;;;;;;8.63;8.13;;;35.60;66.00;;;;;;5096377;28;20442;-70
2022/06/29 09:44:29;;;;;;;9.60;8.90;;;35.60;58.50;;;;;;5096072;28;20532;-70
2022/06/29 09:46:58;;;;;;;9.13;8.43;;;34.10;60.90;;;;;;5096248;28;20842;-70
2022/06/29 09:49:27;;;;;;;8.87;8.13;;;33.70;62.10;;;;;;5095926;28;20480;-70
2022/06/29 09:51:56;;;;;;;8.33;7.63;;;33.90;62.80;;;;;;5095887;28;20539;-70
2022/06/29 09:54:32;;;;;;;8.67;8.17;;;34.20;63.30;;;;;;5095770;28;20793;-70
2022/06/29 09:57:00;;;;;;;6.93;6.43;;;32.70;63.70;;;;;;5096199;28;21003;-70
2022/06/29 10:02:37;;;;;;;8.43;7.83;;;31.40;70.30;;;;;;5095763;28;20488;-70
2022/06/29 10:05:14;;;;;;;8.43;7.63;;;30.20;71.50;;;;;;5095802;28;20444;-70
2022/06/29 10:07:43;;;;;;;8.27;7.57;;;29.10;77.90;;;;;;5095817;28;20489;-70
2022/06/29 10:10:13;;;;;;;7.20;6.70;;;28.90;78.00;;;;;;5095633;28;20563;-70
2022/06/29 10:16:09;;;;;;;7.47;6.83;;;28.80;82.30;;;;;;5095789;28;20423;-70
2022/06/29 10:18:54;;;;;;;6.90;6.50;;;28.50;89.00;;;;;;5095241;28;20789;-70
2022/06/29 10:21:24;;;;;;;7.77;7.27;;;28.20;89.80;;;;;;5095341;28;20515;-70
2022/06/29 10:23:53;;;;;;;9.00;8.20;;;27.80;91.00;;;;;;5095285;28;20441;-70
2022/06/29 10:26:49;;;;;;;9.37;8.67;;;27.50;90.70;;;;;;5095488;28;20491;-70
2022/06/29 10:29:29;;;;;;;9.63;8.80;;;27.00;92.70;;;;;;5059745;28;20484;-69
2022/06/29 10:32:05;;;;;;;10.57;9.77;;;26.40;92.70;;;;;;5095630;28;20442;-69
2022/06/29 10:37:23;;;;;;;9.43;8.63;;;25.50;96.50;;;;;;5094978;28;20428;-69
2022/06/29 10:39:59;;;;;;;10.03;9.30;;;25.40;97.60;;;;;;5095057;28;20555;-69
2022/06/29 10:45:32;;;;;;;8.17;7.67;;;25.20;98.40;;;;;;5095029;28;20420;-70
2022/06/29 10:48:21;;;;;;;9.20;8.40;;;25.20;98.20;;;;;;5095312;28;20522;-69
2022/06/29 10:50:48;;;;;;;9.00;8.20;;;25.30;98.80;;;;;;5094958;28;20484;-69
2022/06/29 10:53:17;;;;;;;9.40;8.70;;;25.30;99.20;;;;;;5094924;28;20534;-69
2022/06/29 10:55:46;;;;;;;9.27;8.57;;;25.40;98.70;;;;;;5094660;28;20940;-69
2022/06/29 10:58:15;;;;;;;8.70;8.00;;;25.20;98.80;;;;;;5094870;28;20446;-69
2022/06/29 11:00:43;;;;;;;8.80;8.10;;;25.00;99.80;;;;;;5094709;28;20538;-69
2022/06/29 11:03:12;;;;;;;9.43;8.73;;;25.00;99.90;;;;;;5095164;28;20570;-69
2022/06/29 11:12:01;;;;;;;8.70;8.00;;;24.90;99.90;;;;;;5094567;28;20801;-69
2022/06/29 11:14:03;;;;;;;8.20;7.60;;;24.80;99.90;;;;;;5094299;28;20770;-69
2022/06/29 11:16:31;;;;;;;8.77;8.03;;;24.80;99.90;;;;;;5094417;28;20527;-69
2022/06/29 11:18:58;;;;;;;8.57;7.97;;;25.00;99.90;;;;;;5094388;28;20527;-69
2022/06/29 11:21:28;;;;;;;7.50;6.90;;;25.20;99.90;;;;;;5094454;28;20543;-69
2022/06/29 11:24:02;;;;;;;8.50;7.80;;;25.30;99.90;;;;;;5094250;28;20436;-69
2022/06/29 11:26:30;;;;;;;9.20;8.40;;;25.30;99.90;;;;;;5094210;28;20431;-69
2022/06/29 11:28:58;;;;;;;8.27;7.50;;;25.20;99.90;;;;;;5093834;28;21024;-69
2022/06/29 11:31:27;;;;;;;8.20;7.50;;;25.40;99.90;;;;;;5093884;28;20444;-69
2022/06/29 11:33:55;;;;;;;8.40;7.73;;;25.50;99.90;;;;;;5094051;28;20483;-69
2022/06/29 11:36:24;;;;;;;8.37;7.67;;;25.60;99.90;;;;;;5093965;28;20501;-69
2022/06/29 11:38:53;;;;;;;9.03;8.37;;;25.60;99.90;;;;;;5094079;28;20532;-69
2022/06/29 11:41:22;;;;;;;8.20;7.50;;;25.70;99.90;;;;;;5094433;28;20440;-69
2022/06/29 11:44:03;;;;;;;9.20;8.50;;;25.90;99.90;;;;;;5094081;28;20569;-70
2022/06/29 11:46:32;;;;;;;8.73;8.07;;;26.20;99.90;;;;;;5094010;28;20538;-69
2022/06/29 11:51:52;;;;;;;8.37;7.60;;;26.50;98.70;;;;;;5094034;28;20408;-69
2022/06/29 11:54:33;;;;;;;8.43;7.73;;;26.60;98.60;;;;;;5093615;28;20530;-69
2022/06/29 11:57:00;;;;;;;7.90;7.13;;;26.70;98.40;;;;;;5093937;28;20476;-69
2022/06/29 11:59:27;;;;;;;8.83;7.93;;;26.60;98.40;;;;;;5093614;28;20615;-69
2022/06/29 12:01:59;;;;;;;8.80;8.00;;;26.30;98.60;;;;;;5093826;28;21017;-69
2022/06/29 12:04:30;;;;;;;8.70;8.10;;;26.10;99.40;;;;;;5093481;28;20531;-70
2022/06/29 12:07:05;;;;;;;8.83;8.13;;;26.00;98.90;;;;;;5093639;28;20535;-69
2022/06/29 12:09:33;;;;;;;8.20;7.43;;;26.00;99.90;;;;;;5093693;28;20608;-69
2022/06/29 12:12:00;;;;;;;9.00;8.20;;;26.00;99.90;;;;;;5093741;28;20530;-69
2022/06/29 12:14:26;;;;;;;8.70;8.10;;;26.00;99.90;;;;;;5093463;28;20535;-69
2022/06/29 12:16:55;;;;;;;8.57;7.97;;;26.00;99.90;;;;;;5093689;28;20475;-69
2022/06/29 12:19:22;;;;;;;8.50;7.70;;;26.10;99.90;;;;;;5093806;28;20585;-69
2022/06/29 12:21:49;;;;;;;8.90;8.20;;;26.20;99.90;;;;;;5093671;28;20846;-69
2022/06/29 12:24:16;;;;;;;8.57;7.97;;;26.30;98.60;;;;;;5093248;28;20444;-70
2022/06/29 12:26:44;;;;;;;7.87;7.27;;;26.40;99.90;;;;;;5093596;28;20526;-69
2022/06/29 12:29:13;;;;;;;8.80;8.10;;;26.70;99.90;;;;;;5093374;28;20472;-69
2022/06/29 12:31:41;;;;;;;7.63;7.10;;;26.90;99.20;;;;;;5093603;28;20444;-69
2022/06/29 12:34:09;;;;;;;7.83;7.10;;;27.00;97.80;;;;;;5093255;28;20809;-70
2022/06/29 12:36:36;;;;;;;8.37;7.80;;;27.30;98.40;;;;;;5093538;28;20855;-69
2022/06/29 12:39:04;;;;;;;7.90;7.33;;;27.50;96.50;;;;;;5093180;28;20956;-69
2022/06/29 12:41:31;;;;;;;7.37;6.83;;;27.40;96.30;;;;;;5095220;28;20442;-69
2022/06/29 12:43:59;;;;;;;7.93;7.33;;;27.20;96.30;;;;;;5097309;28;20443;-69
2022/06/29 12:46:27;;;;;;;8.30;7.50;;;27.10;96.30;;;;;;5097409;28;20450;-69
2022/06/29 12:48:54;;;;;;;7.87;7.17;;;27.00;97.40;;;;;;5097218;28;20459;-69
2022/06/29 12:51:22;;;;;;;7.10;6.50;;;27.00;97.70;;;;;;5097335;28;20487;-69
2022/06/29 12:53:49;;;;;;;7.33;6.50;;;26.80;95.50;;;;;;5097134;28;20536;-69
2022/06/29 12:56:17;;;;;;;7.27;6.77;;;26.80;95.80;;;;;;5097246;28;20534;-69
2022/06/29 12:58:43;;;;;;;7.13;6.63;;;26.90;97.60;;;;;;5097104;28;20446;-69
2022/06/29 13:01:10;;;;;;;7.60;6.90;;;26.90;97.70;;;;;;5097125;28;20562;-69
2022/06/29 13:03:37;;;;;;;7.97;7.30;;;26.80;98.50;;;;;;5096836;28;20539;-69
2022/06/29 13:06:05;;;;;;;7.60;6.93;;;27.00;98.80;;;;;;5096907;28;20439;-69
2022/06/29 13:08:34;;;;;;;7.13;6.63;;;27.10;97.20;;;;;;5096898;28;20455;-69